KCDN

Woodward Field Airport

Camden, South Carolina, USA
METAR KCDN 162355Z AUTO 00000KT 10SM CLR 03/M01 A3026 RMK AO2
Observed Flight Rules
Dec-16 @ 23:55 UTC (28 minutes ago) Visual Flight Rules
Wind Visibility Clouds
Calm 10 miles
  • Clear skies
Temperatures Readings
Current 3°C / 37°F
Dewpoint -1°C / 30°F
Humidity 75%
Altimeter 30.26" Hg
Pressure 1025 hPa
Elevation 92
METAR KCDN 162355Z AUTO 00000KT 10SM CLR 03/M01 A3026 RMK AO2
Observed Flight Rules
Dec-16 @ 23:55 UTC
(28 minutes ago)
VFR
Wind Visibility
Calm 10 miles
Clouds
  • Clear skies
Temperature Dewpoint
3°C / 37°F -1°C / 30°F
Humidity Altimeter Pressure
75% 30.26" Hg 1025 hPa